createdAt,value
2018-02-02T00:00:11.237Z,50.85
2018-02-02T00:02:37.184Z,51.63
2018-02-02T00:05:03.144Z,51.33
2018-02-02T00:07:29.108Z,50.61
2018-02-02T00:09:55.062Z,51.45
2018-02-02T00:12:20.999Z,52.31
2018-02-02T00:14:46.953Z,51.11
2018-02-02T00:17:12.883Z,50.66
2018-02-02T00:19:38.825Z,50.60
2018-02-02T00:22:04.759Z,50.83
2018-02-02T00:24:30.689Z,51.13
2018-02-02T00:26:56.641Z,51.96
2018-02-02T00:29:22.575Z,52.81
2018-02-02T00:31:48.501Z,52.85
2018-02-02T00:34:14.471Z,52.88
2018-02-02T00:36:40.442Z,53.20
2018-02-02T00:39:06.393Z,53.57
2018-02-02T00:41:32.347Z,53.52
2018-02-02T00:43:58.611Z,53.33
2018-02-02T00:46:24.562Z,54.13
2018-02-02T00:48:50.571Z,54.31
2018-02-02T00:51:16.483Z,54.21
2018-02-02T00:53:42.414Z,53.79
2018-02-02T00:56:08.337Z,53.54
2018-02-02T00:58:34.263Z,54.12
2018-02-02T01:01:00.194Z,54.92
2018-02-02T01:03:26.138Z,55.09
2018-02-02T01:05:53.087Z,54.95
2018-02-02T01:08:19.057Z,55.71
2018-02-02T01:10:44.984Z,55.78
2018-02-02T01:13:10.909Z,56.06
2018-02-02T01:15:36.828Z,54.98
2018-02-02T01:18:02.773Z,55.38
2018-02-02T01:20:28.845Z,55.82
2018-02-02T01:22:54.780Z,55.58
2018-02-02T01:25:20.707Z,54.55
2018-02-02T01:27:46.638Z,55.02
2018-02-02T01:30:12.569Z,55.36
2018-02-02T01:32:38.496Z,55.44
2018-02-02T01:35:04.430Z,54.80
2018-02-02T01:37:30.369Z,55.01
2018-02-02T01:39:56.386Z,55.47
2018-02-02T01:42:22.322Z,56.29
2018-02-02T01:44:48.241Z,56.62
2018-02-02T01:47:14.192Z,56.94
2018-02-02T01:49:40.116Z,57.48
2018-02-02T01:52:06.062Z,57.86
2018-02-02T01:54:31.991Z,58.44
2018-02-02T01:56:57.930Z,58.69
2018-02-02T01:59:23.957Z,58.80
2018-02-02T02:01:49.900Z,58.88
2018-02-02T02:04:15.818Z,58.11
2018-02-02T02:06:41.825Z,58.01
2018-02-02T02:09:07.771Z,57.30
2018-02-02T02:11:33.746Z,57.63
2018-02-02T02:13:59.696Z,58.26
2018-02-02T02:16:25.686Z,57.48
2018-02-02T02:18:51.610Z,57.36
2018-02-02T02:21:17.562Z,56.97
2018-02-02T02:23:43.486Z,57.97
2018-02-02T02:26:09.428Z,59.02
2018-02-02T02:28:35.360Z,57.55
2018-02-02T02:31:01.298Z,58.62
2018-02-02T02:33:27.291Z,55.45
2018-02-02T02:35:53.241Z,53.78
2018-02-02T02:38:19.190Z,54.90
2018-02-02T02:40:45.127Z,55.30
2018-02-02T02:43:11.067Z,52.85
2018-02-02T02:45:36.994Z,55.09
2018-02-02T02:48:02.914Z,56.51
2018-02-02T02:50:28.846Z,56.46
2018-02-02T02:52:54.814Z,54.50
2018-02-02T02:55:20.772Z,52.96
2018-02-02T02:57:46.696Z,53.97
2018-02-02T03:00:12.694Z,56.86
2018-02-02T03:02:38.636Z,58.33
2018-02-02T03:05:04.578Z,58.54
2018-02-02T03:07:30.506Z,58.59
2018-02-02T03:09:56.443Z,57.57
2018-02-02T03:12:22.402Z,57.29
2018-02-02T03:14:48.330Z,54.92
2018-02-02T03:17:14.250Z,54.92
2018-02-02T03:19:40.208Z,54.30
2018-02-02T03:22:06.132Z,55.16
2018-02-02T03:24:32.072Z,54.30
2018-02-02T03:26:57.998Z,56.25
2018-02-02T03:29:23.942Z,56.95
2018-02-02T03:31:49.918Z,57.86
2018-02-02T03:34:15.841Z,59.04
2018-02-02T03:36:41.778Z,59.88
2018-02-02T03:39:07.714Z,58.45
2018-02-02T03:41:33.646Z,60.04
2018-02-02T03:43:59.582Z,60.24
2018-02-02T03:46:25.539Z,60.30
2018-02-02T03:48:51.470Z,60.45
2018-02-02T03:51:17.434Z,59.48
2018-02-02T03:53:43.374Z,59.12
2018-02-02T03:56:09.354Z,58.68
2018-02-02T03:58:35.298Z,58.30
2018-02-02T04:01:01.226Z,57.74
2018-02-02T04:03:27.162Z,57.70
2018-02-02T04:05:53.119Z,56.85
2018-02-02T04:08:19.051Z,56.42
2018-02-02T04:10:44.980Z,56.37
2018-02-02T04:13:10.936Z,55.80
2018-02-02T04:15:36.899Z,56.42
2018-02-02T04:18:02.852Z,57.13
2018-02-02T04:20:28.848Z,57.64
2018-02-02T04:22:54.903Z,56.80
2018-02-02T04:25:20.864Z,57.32
2018-02-02T04:27:46.919Z,57.81
2018-02-02T04:30:12.945Z,57.59
2018-02-02T04:32:38.890Z,57.50
2018-02-02T04:35:04.841Z,57.18
2018-02-02T04:37:30.810Z,58.29
2018-02-02T04:39:56.746Z,58.21
2018-02-02T04:42:22.679Z,58.56
2018-02-02T04:44:48.621Z,57.17
2018-02-02T04:47:14.560Z,56.32
2018-02-02T04:49:40.518Z,57.14
2018-02-02T04:52:06.458Z,57.05
2018-02-02T04:54:32.400Z,57.68
2018-02-02T04:56:58.343Z,58.21
2018-02-02T04:59:24.266Z,57.26
2018-02-02T05:01:50.197Z,58.39
2018-02-02T05:04:16.117Z,59.07
2018-02-02T05:06:42.053Z,60.43
2018-02-02T05:09:07.978Z,60.43
2018-02-02T05:11:33.899Z,56.32
2018-02-02T05:13:59.823Z,54.41
2018-02-02T05:16:25.736Z,55.19
2018-02-02T05:18:51.654Z,55.10
2018-02-02T05:21:17.587Z,56.47
2018-02-02T05:23:43.500Z,57.00
2018-02-02T05:26:09.451Z,58.86
2018-02-02T05:28:35.397Z,59.67
2018-02-02T05:31:01.315Z,59.79
2018-02-02T05:33:27.237Z,60.31
2018-02-02T05:35:53.181Z,58.78
2018-02-02T05:38:19.142Z,56.12
2018-02-02T05:40:45.057Z,55.90
2018-02-02T05:43:10.987Z,56.98
2018-02-02T05:45:36.905Z,57.05
2018-02-02T05:48:02.829Z,55.94
2018-02-02T05:50:28.763Z,54.04
2018-02-02T05:52:54.690Z,54.26
2018-02-02T05:55:20.603Z,54.87
2018-02-02T05:57:46.569Z,56.21
2018-02-02T06:00:12.500Z,55.75
2018-02-02T06:02:38.422Z,56.95
2018-02-02T06:05:04.368Z,57.71
2018-02-02T06:07:30.294Z,58.53
2018-02-02T06:09:56.219Z,58.11
2018-02-02T06:12:22.293Z,57.60
2018-02-02T06:14:48.260Z,56.77
2018-02-02T06:17:14.173Z,56.32
2018-02-02T06:19:40.109Z,57.51
2018-02-02T06:22:06.063Z,55.68
2018-02-02T06:24:32.033Z,57.02
2018-02-02T06:26:57.951Z,57.80
2018-02-02T06:29:23.881Z,57.79
2018-02-02T06:31:49.803Z,58.23
2018-02-02T06:34:15.744Z,58.44
2018-02-02T06:36:41.667Z,59.04
2018-02-02T06:39:07.587Z,60.03
2018-02-02T06:41:33.511Z,59.85
2018-02-02T06:43:59.427Z,60.21
2018-02-02T06:46:25.353Z,60.63
2018-02-02T06:48:51.311Z,61.18
2018-02-02T06:51:17.237Z,60.96
2018-02-02T06:53:43.163Z,61.25
2018-02-02T06:56:09.106Z,60.73
2018-02-02T06:58:35.050Z,60.56
2018-02-02T07:01:00.991Z,61.35
2018-02-02T07:03:26.973Z,61.82
2018-02-02T07:05:52.896Z,62.03
2018-02-02T07:08:18.845Z,62.58
2018-02-02T07:10:44.893Z,62.49
2018-02-02T07:13:10.837Z,62.09
2018-02-02T07:15:36.806Z,62.54
2018-02-02T07:18:02.749Z,62.30
2018-02-02T07:20:28.691Z,61.70
2018-02-02T07:22:54.699Z,62.83
2018-02-02T07:25:20.623Z,63.16
2018-02-02T07:27:46.559Z,63.17
2018-02-02T07:30:12.489Z,61.88
2018-02-02T07:32:38.429Z,61.58
2018-02-02T07:35:04.369Z,61.40
2018-02-02T07:37:30.307Z,60.62
2018-02-02T07:39:56.244Z,60.03
2018-02-02T07:42:22.171Z,59.88
2018-02-02T07:44:48.111Z,60.55
2018-02-02T07:47:14.095Z,59.14
2018-02-02T07:49:40.023Z,59.15
2018-02-02T07:52:05.977Z,58.47
2018-02-02T07:54:31.937Z,55.12
2018-02-02T07:56:57.901Z,54.68
2018-02-02T07:59:23.843Z,55.13
2018-02-02T08:01:49.785Z,55.47
2018-02-02T08:04:15.701Z,54.53
2018-02-02T08:06:41.645Z,54.25
2018-02-02T08:09:07.576Z,54.88
2018-02-02T08:11:33.505Z,55.07
2018-02-02T08:13:59.421Z,54.86
2018-02-02T08:16:25.357Z,54.89
2018-02-02T08:18:51.286Z,56.48
2018-02-02T08:21:17.239Z,55.48
2018-02-02T08:23:43.193Z,53.71
2018-02-02T08:26:09.108Z,52.94
2018-02-02T08:28:35.047Z,53.33
2018-02-02T08:31:00.973Z,53.10
2018-02-02T08:33:26.929Z,51.65
2018-02-02T08:35:52.871Z,52.42
2018-02-02T08:38:18.821Z,53.13
2018-02-02T08:40:44.788Z,50.28
2018-02-02T08:43:10.711Z,51.08
2018-02-02T08:45:36.637Z,50.65
2018-02-02T08:48:02.585Z,50.54
2018-02-02T08:50:28.526Z,50.28
2018-02-02T08:52:54.453Z,50.25
2018-02-02T08:55:20.381Z,48.71
2018-02-02T08:57:46.318Z,48.96
2018-02-02T09:00:12.263Z,48.33
2018-02-02T09:02:38.191Z,47.66
2018-02-02T09:05:04.213Z,47.88
2018-02-02T09:07:30.237Z,47.85
2018-02-02T09:09:56.262Z,47.03
2018-02-02T09:12:22.283Z,46.60
2018-02-02T09:14:48.313Z,47.02
2018-02-02T09:17:14.233Z,45.72
2018-02-02T09:19:40.251Z,44.98
2018-02-02T09:22:06.198Z,45.75
2018-02-02T09:24:32.166Z,45.02
2018-02-02T09:26:58.093Z,45.23
2018-02-02T09:29:24.045Z,45.11
2018-02-02T09:31:49.988Z,43.25
2018-02-02T09:34:15.924Z,43.72
2018-02-02T09:36:41.845Z,43.42
2018-02-02T09:39:07.831Z,43.03
2018-02-02T09:41:33.873Z,41.83
2018-02-02T09:43:59.811Z,42.70
2018-02-02T09:46:25.798Z,43.07
2018-02-02T09:48:51.722Z,42.62
2018-02-02T09:51:17.643Z,43.79
2018-02-02T09:53:43.565Z,41.97
2018-02-02T09:56:09.483Z,42.38
2018-02-02T09:58:35.411Z,42.84
2018-02-02T10:01:01.381Z,42.04
2018-02-02T10:03:27.297Z,42.56
2018-02-02T10:05:53.287Z,42.63
2018-02-02T10:08:19.258Z,42.29
2018-02-02T10:10:45.319Z,42.67
2018-02-02T10:13:11.365Z,42.67
2018-02-02T10:15:37.366Z,43.36
2018-02-02T10:18:03.312Z,41.82
2018-02-02T10:20:29.238Z,41.64
2018-02-02T10:22:55.175Z,42.66
2018-02-02T10:25:21.114Z,41.00
2018-02-02T10:27:47.046Z,41.92
2018-02-02T10:30:12.992Z,43.14
2018-02-02T10:32:38.972Z,41.24
2018-02-02T10:35:04.910Z,41.78
2018-02-02T10:37:30.837Z,41.97
2018-02-02T10:39:56.817Z,42.29
2018-02-02T10:42:22.867Z,40.46
2018-02-02T10:44:48.903Z,41.39
2018-02-02T10:47:14.890Z,40.83
2018-02-02T10:49:40.833Z,41.40
2018-02-02T10:52:06.798Z,42.38
2018-02-02T10:54:32.754Z,45.48
2018-02-02T10:56:58.694Z,41.18
2018-02-02T10:59:24.657Z,41.03
2018-02-02T11:01:50.610Z,41.45
2018-02-02T11:04:16.626Z,41.23
2018-02-02T11:06:42.652Z,42.21
2018-02-02T11:09:08.592Z,41.41
2018-02-02T11:11:34.554Z,40.97
2018-02-02T11:14:00.486Z,40.26
2018-02-02T11:16:26.432Z,41.43
2018-02-02T11:18:52.370Z,41.00
2018-02-02T11:21:18.328Z,39.68
2018-02-02T11:23:44.251Z,39.96
2018-02-02T11:26:10.174Z,40.01
2018-02-02T11:28:36.102Z,40.84
2018-02-02T11:31:02.036Z,39.78
2018-02-02T11:33:28.206Z,39.92
2018-02-02T11:35:54.136Z,40.42
2018-02-02T11:38:20.066Z,40.91
2018-02-02T11:40:45.986Z,40.98
2018-02-02T11:43:11.926Z,40.64
2018-02-02T11:45:37.887Z,40.51
2018-02-02T11:48:03.844Z,41.58
2018-02-02T11:50:29.804Z,41.51
2018-02-02T11:52:55.718Z,40.72
2018-02-02T11:55:21.647Z,40.23
2018-02-02T11:57:47.570Z,40.39
2018-02-02T12:00:13.514Z,40.32
2018-02-02T12:02:39.451Z,40.48
2018-02-02T12:05:05.386Z,41.35
2018-02-02T12:07:31.326Z,41.06
2018-02-02T12:09:57.282Z,41.18
2018-02-02T12:12:23.202Z,40.81
2018-02-02T12:14:49.150Z,40.40
2018-02-02T12:17:15.116Z,39.71
2018-02-02T12:19:41.075Z,40.57
2018-02-02T12:22:07.002Z,40.18
2018-02-02T12:24:32.942Z,39.88
2018-02-02T12:26:58.865Z,39.30
2018-02-02T12:29:24.813Z,40.57
2018-02-02T12:31:50.748Z,39.83
2018-02-02T12:34:16.715Z,40.23
2018-02-02T12:36:42.661Z,39.79
2018-02-02T12:39:08.656Z,40.51
2018-02-02T12:41:34.584Z,40.33
2018-02-02T12:44:00.531Z,40.72
2018-02-02T12:46:26.498Z,41.13
2018-02-02T12:48:52.467Z,41.45
2018-02-02T12:51:18.402Z,39.34
2018-02-02T12:53:44.385Z,39.76
2018-02-02T12:56:10.330Z,40.31
2018-02-02T12:58:36.260Z,39.89
2018-02-02T13:01:02.191Z,40.25
2018-02-02T13:03:28.203Z,39.98
2018-02-02T13:05:54.126Z,40.57
2018-02-02T13:08:20.169Z,40.54
2018-02-02T13:10:46.113Z,39.44
2018-02-02T13:13:12.041Z,39.51
2018-02-02T13:15:37.991Z,40.14
2018-02-02T13:18:03.922Z,40.92
2018-02-02T13:20:29.869Z,40.17
2018-02-02T13:22:55.926Z,40.50
2018-02-02T13:25:21.948Z,40.93
2018-02-02T13:27:47.907Z,40.00
2018-02-02T13:30:13.829Z,40.23
2018-02-02T13:32:39.775Z,40.65
2018-02-02T13:35:05.715Z,40.60
2018-02-02T13:37:31.645Z,40.97
2018-02-02T13:39:57.607Z,40.09
2018-02-02T13:42:23.541Z,40.47
2018-02-02T13:44:49.530Z,40.37
2018-02-02T13:47:15.473Z,40.83
2018-02-02T13:49:41.413Z,40.99
2018-02-02T13:52:07.401Z,41.72
2018-02-02T13:54:33.355Z,40.93
2018-02-02T13:56:59.354Z,41.71
2018-02-02T13:59:25.305Z,41.44
2018-02-02T14:01:51.239Z,41.40
2018-02-02T14:04:17.187Z,41.05
2018-02-02T14:06:43.133Z,41.68
2018-02-02T14:09:09.067Z,41.81
2018-02-02T14:11:34.994Z,42.70
2018-02-02T14:14:00.962Z,42.66
2018-02-02T14:16:26.882Z,42.52
2018-02-02T14:18:52.820Z,42.79
2018-02-02T14:21:18.744Z,43.04
2018-02-02T14:23:44.735Z,43.27
2018-02-02T14:26:10.687Z,44.27
2018-02-02T14:28:36.626Z,44.70
2018-02-02T14:31:02.545Z,45.40
2018-02-02T14:33:28.514Z,44.54
2018-02-02T14:35:54.445Z,44.94
2018-02-02T14:38:20.383Z,44.96
2018-02-02T14:40:46.301Z,44.95
2018-02-02T14:43:12.241Z,45.02
2018-02-02T14:45:38.173Z,45.81
2018-02-02T14:48:04.156Z,45.73
2018-02-02T14:50:30.102Z,45.75
2018-02-02T14:52:56.049Z,46.04
2018-02-02T14:55:21.997Z,46.10
2018-02-02T14:57:47.941Z,46.19
2018-02-02T15:00:13.890Z,46.56
2018-02-02T15:02:39.829Z,46.32
2018-02-02T15:05:05.781Z,46.38
2018-02-02T15:07:31.729Z,46.56
2018-02-02T15:09:57.694Z,47.03
2018-02-02T15:12:23.633Z,47.21
2018-02-02T15:14:49.589Z,49.29
2018-02-02T15:17:15.521Z,49.81
2018-02-02T15:19:41.467Z,47.62
2018-02-02T15:22:07.404Z,47.56
2018-02-02T15:24:33.368Z,47.72
2018-02-02T15:26:59.318Z,50.94
2018-02-02T15:29:25.246Z,48.84
2018-02-02T15:31:51.174Z,49.02
2018-02-02T15:34:17.120Z,48.97
2018-02-02T15:36:43.054Z,48.95
2018-02-02T15:39:09.026Z,49.03
2018-02-02T15:41:34.957Z,48.85
2018-02-02T15:44:00.904Z,48.74
2018-02-02T15:46:26.876Z,49.25
2018-02-02T15:48:52.838Z,49.13
2018-02-02T15:51:18.808Z,48.88
2018-02-02T15:53:44.780Z,49.10
2018-02-02T15:56:10.806Z,48.62
2018-02-02T15:58:36.735Z,48.33
2018-02-02T16:01:02.672Z,48.28
2018-02-02T16:03:28.626Z,48.36
2018-02-02T16:05:54.557Z,48.61
2018-02-02T16:08:20.497Z,48.84
2018-02-02T16:10:46.464Z,49.00
2018-02-02T16:13:12.406Z,48.63
2018-02-02T16:15:38.346Z,52.84
2018-02-02T16:18:04.301Z,63.77
2018-02-02T16:20:30.253Z,57.83
2018-02-02T16:22:56.195Z,56.59
2018-02-02T16:25:22.140Z,53.71
2018-02-02T16:27:48.113Z,52.38
2018-02-02T16:30:14.051Z,52.43
2018-02-02T16:32:39.981Z,51.10
2018-02-02T16:35:05.950Z,53.23
2018-02-02T16:37:31.877Z,50.08
2018-02-02T16:39:57.827Z,49.05
2018-02-02T16:42:23.770Z,49.48
2018-02-02T16:44:49.766Z,48.66
2018-02-02T16:47:15.730Z,49.20
2018-02-02T16:49:41.695Z,48.59
2018-02-02T16:52:07.621Z,48.90
2018-02-02T16:54:33.553Z,49.49
2018-02-02T16:56:59.496Z,49.36
2018-02-02T16:59:25.414Z,49.28
2018-02-02T17:01:51.390Z,49.15
2018-02-02T17:04:17.379Z,48.83
2018-02-02T17:06:43.315Z,48.68
2018-02-02T17:09:09.276Z,48.43
2018-02-02T17:11:35.290Z,49.57
2018-02-02T17:14:01.250Z,50.16
2018-02-02T17:16:27.216Z,49.49
2018-02-02T17:18:53.168Z,49.85
2018-02-02T17:21:19.106Z,48.83
2018-02-02T17:23:45.057Z,49.52
2018-02-02T17:26:11.008Z,49.30
2018-02-02T17:28:36.979Z,49.40
2018-02-02T17:31:02.931Z,48.79
2018-02-02T17:33:28.874Z,48.53
2018-02-02T17:35:54.858Z,48.65
2018-02-02T17:38:20.819Z,48.76
2018-02-02T17:40:46.769Z,48.43
2018-02-02T17:43:12.719Z,47.86
2018-02-02T17:45:38.646Z,48.47
2018-02-02T17:48:04.578Z,48.01
2018-02-02T17:50:30.599Z,48.58
2018-02-02T17:52:56.567Z,48.36
2018-02-02T17:55:22.493Z,48.32
2018-02-02T17:57:48.439Z,48.08
2018-02-02T18:00:14.381Z,48.12
2018-02-02T18:02:40.337Z,48.91
2018-02-02T18:05:06.287Z,48.67
2018-02-02T18:07:32.243Z,48.07
2018-02-02T18:09:58.278Z,48.40
2018-02-02T18:12:24.231Z,48.85
2018-02-02T18:14:50.215Z,48.86
2018-02-02T18:17:16.193Z,48.05
2018-02-02T18:19:42.152Z,47.92
2018-02-02T18:22:08.173Z,48.19
2018-02-02T18:24:34.132Z,48.38
2018-02-02T18:27:00.198Z,48.35
2018-02-02T18:29:26.281Z,48.00
2018-02-02T18:31:52.309Z,48.14
2018-02-02T18:34:18.395Z,48.04
2018-02-02T18:36:44.396Z,48.01
2018-02-02T18:39:10.390Z,48.11
2018-02-02T18:41:36.403Z,48.56
2018-02-02T18:44:02.367Z,48.73
2018-02-02T18:46:28.319Z,48.11
2018-02-02T18:48:54.279Z,48.71
2018-02-02T18:51:22.441Z,48.62
2018-02-02T18:53:48.395Z,48.38
2018-02-02T18:56:14.439Z,48.74
2018-02-02T18:58:40.420Z,49.09
2018-02-02T19:01:06.393Z,48.39
2018-02-02T19:03:32.337Z,50.62
2018-02-02T19:05:58.277Z,52.49
2018-02-02T19:08:24.207Z,52.34
2018-02-02T19:10:50.164Z,51.16
2018-02-02T19:13:16.100Z,50.66
2018-02-02T19:15:42.021Z,49.56
2018-02-02T19:18:07.956Z,50.40
2018-02-02T19:20:35.059Z,49.97
2018-02-02T19:23:01.014Z,50.64
2018-02-02T19:25:26.994Z,49.97
2018-02-02T19:27:52.948Z,48.94
2018-02-02T19:30:18.888Z,49.73
2018-02-02T19:32:44.834Z,49.55
2018-02-02T19:35:10.784Z,48.41
2018-02-02T19:37:36.742Z,49.43
2018-02-02T19:40:02.678Z,49.54
2018-02-02T19:42:28.743Z,49.46
2018-02-02T19:44:54.717Z,48.89
2018-02-02T19:47:20.680Z,49.47
2018-02-02T19:49:46.624Z,48.88
2018-02-02T19:52:12.564Z,48.57
2018-02-02T19:54:38.530Z,48.50
2018-02-02T19:57:04.475Z,49.09
2018-02-02T19:59:31.075Z,48.70
2018-02-02T20:01:57.040Z,49.59
2018-02-02T20:04:22.976Z,48.71
2018-02-02T20:06:48.910Z,49.99
2018-02-02T20:09:14.885Z,49.75
2018-02-02T20:11:40.830Z,50.02
2018-02-02T20:14:06.789Z,49.88
2018-02-02T20:16:32.763Z,49.72
2018-02-02T20:18:58.734Z,50.06
2018-02-02T20:21:24.780Z,49.17
2018-02-02T20:23:50.741Z,49.87
2018-02-02T20:26:16.684Z,49.70
2018-02-02T20:28:42.630Z,49.66
2018-02-02T20:31:08.696Z,49.08
2018-02-02T20:33:34.673Z,49.22
2018-02-02T20:36:00.615Z,49.63
2018-02-02T20:38:26.571Z,49.24
2018-02-02T20:40:52.507Z,49.89
2018-02-02T20:43:18.488Z,48.88
2018-02-02T20:45:44.419Z,49.47
2018-02-02T20:48:10.394Z,49.17
2018-02-02T20:50:36.332Z,49.34
2018-02-02T20:53:02.310Z,49.58
2018-02-02T20:55:28.272Z,49.62
2018-02-02T20:57:54.333Z,50.27
2018-02-02T21:00:20.341Z,49.06
2018-02-02T21:02:46.292Z,49.50
2018-02-02T21:05:12.280Z,49.50
2018-02-02T21:07:38.332Z,49.47
2018-02-02T21:10:04.329Z,49.33
2018-02-02T21:12:30.266Z,49.80
2018-02-02T21:14:56.615Z,48.92
2018-02-02T21:17:22.548Z,49.18
2018-02-02T21:19:48.488Z,48.97
2018-02-02T21:22:14.442Z,49.25
2018-02-02T21:24:40.374Z,48.93
2018-02-02T21:27:06.318Z,48.98
2018-02-02T21:29:32.253Z,49.00
2018-02-02T21:31:58.262Z,49.02
2018-02-02T21:34:24.280Z,48.98
2018-02-02T21:36:50.284Z,48.91
2018-02-02T21:39:16.225Z,48.54
2018-02-02T21:41:42.252Z,48.71
2018-02-02T21:44:08.273Z,49.02
2018-02-02T21:46:34.210Z,49.07
2018-02-02T21:49:00.217Z,48.98
2018-02-02T21:51:26.131Z,49.18
2018-02-02T21:53:52.186Z,49.29
2018-02-02T21:56:18.142Z,49.19
2018-02-02T21:58:44.076Z,49.23
2018-02-02T22:01:10.028Z,49.09
2018-02-02T22:03:35.957Z,49.71
2018-02-02T22:06:01.911Z,49.40
2018-02-02T22:08:27.916Z,49.51
2018-02-02T22:10:53.845Z,49.54
2018-02-02T22:13:19.783Z,49.58
2018-02-02T22:15:45.752Z,49.54
2018-02-02T22:18:11.700Z,49.62
2018-02-02T22:20:37.697Z,49.56
2018-02-02T22:23:03.621Z,49.74
2018-02-02T22:25:29.579Z,49.55
2018-02-02T22:27:55.518Z,49.43
2018-02-02T22:30:21.470Z,50.00
2018-02-02T22:32:47.391Z,49.91
2018-02-02T22:35:13.327Z,49.57
2018-02-02T22:37:39.249Z,49.45
2018-02-02T22:40:05.210Z,49.70
2018-02-02T22:42:31.155Z,50.07
2018-02-02T22:44:57.130Z,49.80
2018-02-02T22:47:23.064Z,50.49
2018-02-02T22:49:49.018Z,50.59
2018-02-02T22:52:14.943Z,50.52
2018-02-02T22:54:40.885Z,50.26
2018-02-02T22:57:06.806Z,50.74
2018-02-02T22:59:32.735Z,50.18
2018-02-02T23:01:58.681Z,50.71
2018-02-02T23:04:24.727Z,50.46
2018-02-02T23:06:50.654Z,50.71
2018-02-02T23:09:16.575Z,50.24
2018-02-02T23:11:42.521Z,50.65
2018-02-02T23:14:08.454Z,51.56
2018-02-02T23:16:34.398Z,51.08
2018-02-02T23:19:00.336Z,50.68
2018-02-02T23:21:26.284Z,50.46
2018-02-02T23:23:52.199Z,51.23
2018-02-02T23:26:18.142Z,51.52
2018-02-02T23:28:44.086Z,51.41
2018-02-02T23:31:10.037Z,51.59
2018-02-02T23:33:35.983Z,51.57
2018-02-02T23:36:01.916Z,51.84
2018-02-02T23:38:27.859Z,51.58
2018-02-02T23:40:53.805Z,51.78
2018-02-02T23:43:19.744Z,52.28
2018-02-02T23:45:45.685Z,52.02
2018-02-02T23:48:11.606Z,52.36
2018-02-02T23:50:37.551Z,52.49
2018-02-02T23:53:03.512Z,52.55
2018-02-02T23:55:29.461Z,52.61
2018-02-02T23:57:55.394Z,53.01
